createdAt,value
2023-05-18T00:00:41.634Z,99.99
2023-05-18T00:01:41.644Z,99.99
2023-05-18T00:02:41.714Z,99.99
2023-05-18T00:03:41.705Z,99.99
2023-05-18T00:04:41.656Z,99.99
2023-05-18T00:05:41.576Z,99.99
2023-05-18T00:06:41.573Z,99.99
2023-05-18T00:07:41.564Z,99.99
2023-05-18T00:08:41.589Z,99.99
2023-05-18T00:09:41.537Z,99.99
2023-05-18T00:10:41.523Z,99.99
2023-05-18T00:11:41.517Z,99.99
2023-05-18T00:12:41.514Z,99.99
2023-05-18T00:13:41.497Z,99.99
2023-05-18T00:14:41.507Z,99.99
2023-05-18T00:15:41.475Z,99.99
2023-05-18T00:16:41.553Z,99.99
2023-05-18T00:17:41.497Z,99.99
2023-05-18T00:18:41.481Z,99.99
2023-05-18T00:19:41.441Z,99.99
2023-05-18T00:20:41.428Z,99.99
2023-05-18T00:21:41.407Z,99.99
2023-05-18T00:22:41.396Z,99.99
2023-05-18T00:23:41.386Z,99.99
2023-05-18T00:24:41.420Z,99.99
2023-05-18T00:25:41.358Z,99.99
2023-05-18T00:26:41.373Z,99.99
2023-05-18T00:27:41.356Z,99.99
2023-05-18T00:28:41.331Z,99.99
2023-05-18T00:29:41.318Z,99.99
2023-05-18T00:30:41.332Z,99.99
2023-05-18T00:31:41.335Z,99.99
2023-05-18T00:32:41.375Z,99.99
2023-05-18T00:33:41.300Z,99.99
2023-05-18T00:34:41.288Z,99.99
2023-05-18T00:35:41.255Z,99.99
2023-05-18T00:36:41.256Z,99.99
2023-05-18T00:37:41.232Z,99.99
2023-05-18T00:38:41.255Z,99.99
2023-05-18T00:39:41.211Z,99.99
2023-05-18T00:40:41.204Z,99.99
2023-05-18T00:41:41.195Z,99.99
2023-05-18T00:42:41.252Z,99.99
2023-05-18T00:43:41.184Z,99.99
2023-05-18T00:44:41.241Z,99.99
2023-05-18T00:45:41.185Z,99.99
2023-05-18T00:46:41.184Z,99.99
2023-05-18T00:47:41.203Z,99.99
2023-05-18T00:48:41.181Z,99.99
2023-05-18T00:49:41.157Z,99.99
2023-05-18T00:50:41.153Z,99.99
2023-05-18T00:51:41.149Z,99.99
2023-05-18T00:52:41.089Z,99.99
2023-05-18T00:53:43.417Z,99.99
2023-05-18T00:54:41.071Z,99.99
2023-05-18T00:55:41.045Z,99.99
2023-05-18T00:56:41.056Z,99.99
2023-05-18T00:57:41.022Z,99.99
2023-05-18T00:58:41.030Z,99.99
2023-05-18T00:59:41.002Z,99.99
2023-05-18T01:00:40.997Z,99.99
2023-05-18T01:01:41.059Z,99.99
2023-05-18T01:02:41.072Z,99.99
2023-05-18T01:03:41.023Z,99.99
2023-05-18T01:04:40.948Z,99.99
2023-05-18T01:05:40.963Z,99.99
2023-05-18T01:06:40.935Z,99.99
2023-05-18T01:07:40.924Z,99.99
2023-05-18T01:08:40.927Z,99.99
2023-05-18T01:09:40.920Z,99.99
2023-05-18T01:10:40.888Z,99.99
2023-05-18T01:11:40.932Z,99.99
2023-05-18T01:12:40.874Z,99.99
2023-05-18T01:13:40.848Z,99.99
2023-05-18T01:14:40.866Z,99.99
2023-05-18T01:15:40.827Z,99.99
2023-05-18T01:16:40.847Z,99.99
2023-05-18T01:17:40.844Z,99.99
2023-05-18T01:18:40.841Z,99.99
2023-05-18T01:19:40.790Z,99.99
2023-05-18T01:20:40.814Z,99.99
2023-05-18T01:21:40.780Z,99.99
2023-05-18T01:22:40.776Z,99.99
2023-05-18T01:23:40.744Z,99.99
2023-05-18T01:24:40.736Z,99.99
2023-05-18T01:25:40.725Z,99.99
2023-05-18T01:26:40.747Z,99.99
2023-05-18T01:27:40.698Z,99.99
2023-05-18T01:28:40.706Z,99.99
2023-05-18T01:29:40.680Z,99.99
2023-05-18T01:30:40.686Z,99.99
2023-05-18T01:31:40.657Z,99.99
2023-05-18T01:32:40.749Z,99.99
2023-05-18T01:33:40.641Z,99.99
2023-05-18T01:34:40.627Z,99.99
2023-05-18T01:35:40.614Z,99.99
2023-05-18T01:36:40.604Z,99.99
2023-05-18T01:37:40.626Z,99.99
2023-05-18T01:38:43.125Z,99.99
2023-05-18T01:39:40.573Z,99.99
2023-05-18T01:40:40.574Z,99.99
2023-05-18T01:41:40.553Z,99.99
2023-05-18T01:42:40.550Z,99.99
2023-05-18T01:43:40.527Z,99.99
2023-05-18T01:44:40.584Z,99.99
2023-05-18T01:45:40.506Z,99.99
2023-05-18T01:46:40.561Z,99.99
2023-05-18T01:47:40.566Z,99.99
2023-05-18T01:48:40.476Z,99.99
2023-05-18T01:49:40.475Z,99.99
2023-05-18T01:50:40.492Z,99.99
2023-05-18T01:51:40.445Z,99.99
2023-05-18T01:52:40.442Z,99.99
2023-05-18T01:53:40.450Z,99.99
2023-05-18T01:54:40.410Z,99.99
2023-05-18T01:55:40.465Z,99.99
2023-05-18T01:56:40.441Z,99.99
2023-05-18T01:57:40.384Z,99.99
2023-05-18T01:58:40.372Z,99.99
2023-05-18T01:59:40.359Z,99.99
2023-05-18T02:00:40.347Z,99.99
2023-05-18T02:01:40.349Z,99.99
2023-05-18T02:02:40.497Z,99.99
2023-05-18T02:03:40.389Z,99.99
2023-05-18T02:04:40.304Z,99.99
2023-05-18T02:05:40.290Z,99.99
2023-05-18T02:06:40.290Z,99.99
2023-05-18T02:07:40.283Z,99.99
2023-05-18T02:08:40.297Z,99.99
2023-05-18T02:09:40.270Z,99.99
2023-05-18T02:10:40.241Z,99.99
2023-05-18T02:11:40.226Z,99.99
2023-05-18T02:12:40.229Z,99.99
2023-05-18T02:13:40.219Z,99.99
2023-05-18T02:14:40.216Z,99.99
2023-05-18T02:15:40.180Z,99.99
2023-05-18T02:16:40.271Z,99.99
2023-05-18T02:17:40.323Z,99.99
2023-05-18T02:18:40.184Z,99.99
2023-05-18T02:19:40.134Z,99.99
2023-05-18T02:20:40.150Z,99.99
2023-05-18T02:21:40.117Z,99.99
2023-05-18T02:22:40.133Z,99.99
2023-05-18T02:23:40.093Z,99.99
2023-05-18T02:24:40.094Z,99.99
2023-05-18T02:25:40.114Z,99.99
2023-05-18T02:26:40.120Z,99.99
2023-05-18T02:27:40.053Z,99.99
2023-05-18T02:28:40.095Z,99.99
2023-05-18T02:29:40.034Z,99.99
2023-05-18T02:30:40.018Z,99.99
2023-05-18T02:31:40.015Z,99.99
2023-05-18T02:32:40.053Z,99.99
2023-05-18T02:33:40.250Z,99.99
2023-05-18T02:34:39.988Z,99.99
2023-05-18T02:35:39.966Z,99.99
2023-05-18T02:36:40.180Z,99.99
2023-05-18T02:37:40.274Z,99.99
2023-05-18T02:38:39.966Z,99.99
2023-05-18T02:39:39.919Z,99.99
2023-05-18T02:40:39.922Z,99.99
2023-05-18T02:41:39.985Z,99.99
2023-05-18T02:42:39.895Z,99.99
2023-05-18T02:43:39.876Z,99.99
2023-05-18T02:44:39.899Z,99.99
2023-05-18T02:45:39.896Z,99.99
2023-05-18T02:46:39.858Z,99.99
2023-05-18T02:47:39.877Z,99.99
2023-05-18T02:48:39.837Z,99.99
2023-05-18T02:49:39.818Z,99.99
2023-05-18T02:50:39.852Z,99.99
2023-05-18T02:51:39.796Z,99.99
2023-05-18T02:52:39.793Z,99.99
2023-05-18T02:53:39.817Z,99.99
2023-05-18T02:54:39.777Z,99.99
2023-05-18T02:55:39.760Z,99.99
2023-05-18T02:56:39.762Z,99.99
2023-05-18T02:57:39.756Z,99.99
2023-05-18T02:58:39.722Z,99.99
2023-05-18T02:59:39.724Z,99.99
2023-05-18T03:00:39.702Z,99.99
2023-05-18T03:01:39.736Z,99.99
2023-05-18T03:02:39.794Z,99.99
2023-05-18T03:03:39.793Z,99.99
2023-05-18T03:04:39.663Z,99.99
2023-05-18T03:05:39.646Z,99.99
2023-05-18T03:06:39.637Z,99.99
2023-05-18T03:07:39.623Z,99.99
2023-05-18T03:08:39.646Z,99.99
2023-05-18T03:09:39.607Z,99.99
2023-05-18T03:10:39.621Z,99.99
2023-05-18T03:11:39.581Z,99.99
2023-05-18T03:12:39.572Z,99.99
2023-05-18T03:13:39.582Z,99.99
2023-05-18T03:14:39.601Z,99.99
2023-05-18T03:15:39.559Z,99.99
2023-05-18T03:16:39.609Z,99.99
2023-05-18T03:17:39.558Z,99.99
2023-05-18T03:18:39.547Z,99.99
2023-05-18T03:19:39.502Z,99.99
2023-05-18T03:20:39.530Z,99.99
2023-05-18T03:21:39.483Z,99.99
2023-05-18T03:22:39.471Z,99.99
2023-05-18T03:23:39.452Z,99.99
2023-05-18T03:24:39.452Z,99.99
2023-05-18T03:25:39.438Z,99.99
2023-05-18T03:26:39.470Z,99.99
2023-05-18T03:27:39.408Z,99.99
2023-05-18T03:28:39.405Z,99.99
2023-05-18T03:29:39.421Z,99.99
2023-05-18T03:30:39.440Z,99.99
2023-05-18T03:31:39.438Z,99.99
2023-05-18T03:32:39.470Z,99.99
2023-05-18T03:33:39.345Z,99.99
2023-05-18T03:34:39.349Z,99.99
2023-05-18T03:35:39.325Z,99.99
2023-05-18T03:36:39.340Z,99.99
2023-05-18T03:37:39.308Z,99.99
2023-05-18T03:38:39.436Z,99.99
2023-05-18T03:39:39.280Z,99.99
2023-05-18T03:40:39.272Z,99.99
2023-05-18T03:41:39.266Z,99.99
2023-05-18T03:42:39.270Z,99.99
2023-05-18T03:43:39.238Z,99.99
2023-05-18T03:44:39.336Z,99.99
2023-05-18T03:45:39.250Z,99.99
2023-05-18T03:46:39.262Z,99.99
2023-05-18T03:47:39.251Z,99.99
2023-05-18T03:48:39.199Z,99.99
2023-05-18T03:49:39.177Z,99.99
2023-05-18T03:50:39.213Z,99.99
2023-05-18T03:51:39.162Z,99.99
2023-05-18T03:52:39.155Z,99.99
2023-05-18T03:53:39.131Z,99.99
2023-05-18T03:54:39.133Z,99.99
2023-05-18T03:55:39.115Z,99.99
2023-05-18T03:56:39.181Z,99.99
2023-05-18T03:57:39.097Z,99.99
2023-05-18T03:58:39.083Z,99.99
2023-05-18T03:59:39.070Z,99.99
2023-05-18T04:00:39.078Z,99.99
2023-05-18T04:01:39.165Z,99.99
2023-05-18T04:02:39.210Z,99.99
2023-05-18T04:03:39.083Z,99.99
2023-05-18T04:04:39.013Z,99.99
2023-05-18T04:05:39.006Z,99.99
2023-05-18T04:06:38.994Z,99.99
2023-05-18T04:07:38.988Z,99.99
2023-05-18T04:08:39.019Z,99.99
2023-05-18T04:09:38.961Z,99.99
2023-05-18T04:10:38.952Z,99.99
2023-05-18T04:11:38.941Z,99.99
2023-05-18T04:12:38.959Z,99.99
2023-05-18T04:13:38.942Z,99.99
2023-05-18T04:14:38.950Z,99.99
2023-05-18T04:15:38.911Z,99.99
2023-05-18T04:16:38.973Z,99.99
2023-05-18T04:17:38.953Z,99.99
2023-05-18T04:18:38.878Z,99.99
2023-05-18T04:19:38.899Z,99.99
2023-05-18T04:20:38.895Z,99.99
2023-05-18T04:21:38.842Z,99.99
2023-05-18T04:22:38.833Z,99.99
2023-05-18T04:23:38.849Z,99.99
2023-05-18T04:24:38.811Z,99.99
2023-05-18T04:25:38.795Z,99.99
2023-05-18T04:26:38.799Z,99.99
2023-05-18T04:27:38.770Z,99.99
2023-05-18T04:28:38.773Z,99.99
2023-05-18T04:29:38.747Z,99.99
2023-05-18T04:30:38.731Z,99.99
2023-05-18T04:31:38.760Z,99.99
2023-05-18T04:32:38.768Z,99.99
2023-05-18T04:33:38.800Z,99.99
2023-05-18T04:34:38.692Z,99.99
2023-05-18T04:35:38.725Z,99.99
2023-05-18T04:36:38.669Z,99.99
2023-05-18T04:37:38.675Z,99.99
2023-05-18T04:38:38.684Z,99.99
2023-05-18T04:39:38.654Z,99.99
2023-05-18T04:40:38.638Z,99.99
2023-05-18T04:41:38.617Z,99.99
2023-05-18T04:42:38.608Z,99.99
2023-05-18T04:43:38.607Z,99.99
2023-05-18T04:44:38.614Z,99.99
2023-05-18T04:45:38.641Z,99.99
2023-05-18T04:46:38.563Z,99.99
2023-05-18T04:47:38.574Z,99.84
2023-05-18T04:48:38.551Z,99.90
2023-05-18T04:49:38.679Z,98.65
2023-05-18T04:50:38.550Z,99.33
2023-05-18T04:51:38.528Z,97.72
2023-05-18T04:52:38.506Z,96.27
2023-05-18T04:53:38.494Z,95.50
2023-05-18T04:54:38.475Z,95.71
2023-05-18T04:55:38.486Z,95.50
2023-05-18T04:56:38.474Z,95.19
2023-05-18T04:57:38.449Z,93.85
2023-05-18T04:58:38.436Z,94.68
2023-05-18T04:59:38.437Z,95.40
2023-05-18T05:00:38.412Z,96.86
2023-05-18T05:01:38.430Z,97.49
2023-05-18T05:02:38.467Z,96.66
2023-05-18T05:03:38.591Z,95.94
2023-05-18T05:04:38.382Z,95.99
2023-05-18T05:05:38.379Z,95.57
2023-05-18T05:06:38.344Z,94.79
2023-05-18T05:07:38.345Z,94.38
2023-05-18T05:08:38.340Z,94.90
2023-05-18T05:09:38.313Z,96.30
2023-05-18T05:10:38.310Z,93.47
2023-05-18T05:11:38.304Z,95.70
2023-05-18T05:12:38.289Z,93.57
2023-05-18T05:13:38.269Z,92.58
2023-05-18T05:14:38.286Z,93.41
2023-05-18T05:15:38.285Z,94.54
2023-05-18T05:16:38.231Z,94.92
2023-05-18T05:17:38.283Z,94.29
2023-05-18T05:18:38.254Z,94.46
2023-05-18T05:19:38.220Z,93.05
2023-05-18T05:20:38.199Z,94.40
2023-05-18T05:21:38.201Z,95.74
2023-05-18T05:22:38.246Z,95.32
2023-05-18T05:23:38.172Z,94.56
2023-05-18T05:24:38.152Z,94.50
2023-05-18T05:25:38.153Z,93.97
2023-05-18T05:26:38.132Z,93.76
2023-05-18T05:27:38.121Z,94.34
2023-05-18T05:28:38.103Z,93.47
2023-05-18T05:29:38.104Z,93.01
2023-05-18T05:30:38.097Z,91.98
2023-05-18T05:31:38.183Z,92.80
2023-05-18T05:32:38.158Z,91.50
2023-05-18T05:33:38.050Z,91.56
2023-05-18T05:34:38.061Z,91.16
2023-05-18T05:35:38.363Z,90.74
2023-05-18T05:36:38.013Z,89.05
2023-05-18T05:37:38.040Z,90.39
2023-05-18T05:38:38.011Z,90.86
2023-05-18T05:39:38.015Z,89.22
2023-05-18T05:40:37.981Z,89.52
2023-05-18T05:41:37.962Z,88.02
2023-05-18T05:42:37.950Z,86.94
2023-05-18T05:43:37.963Z,88.90
2023-05-18T05:44:37.926Z,86.70
2023-05-18T05:45:37.941Z,87.52
2023-05-18T05:46:37.988Z,90.01
2023-05-18T05:47:37.970Z,90.16
2023-05-18T05:48:37.887Z,89.07
2023-05-18T05:49:37.891Z,89.25
2023-05-18T05:50:37.874Z,89.62
2023-05-18T05:51:37.861Z,88.29
2023-05-18T05:52:37.877Z,90.10
2023-05-18T05:53:37.854Z,90.35
2023-05-18T05:54:37.822Z,86.78
2023-05-18T05:55:37.831Z,89.73
2023-05-18T05:56:37.800Z,89.42
2023-05-18T05:57:37.791Z,89.34
2023-05-18T05:58:37.800Z,89.89
2023-05-18T05:59:37.779Z,89.03
2023-05-18T06:00:37.757Z,89.13
2023-05-18T06:01:37.871Z,89.03
2023-05-18T06:02:37.933Z,89.50
2023-05-18T06:03:37.763Z,89.61
2023-05-18T06:04:37.790Z,89.40
2023-05-18T06:05:37.722Z,88.89
2023-05-18T06:06:37.711Z,88.12
2023-05-18T06:07:37.723Z,87.71
2023-05-18T06:08:37.692Z,88.74
2023-05-18T06:09:37.709Z,88.99
2023-05-18T06:10:37.677Z,89.81
2023-05-18T06:11:37.645Z,89.19
2023-05-18T06:12:37.628Z,86.61
2023-05-18T06:13:37.643Z,86.93
2023-05-18T06:14:37.612Z,87.85
2023-05-18T06:15:37.614Z,91.11
2023-05-18T06:16:37.633Z,90.08
2023-05-18T06:17:37.632Z,88.95
2023-05-18T06:18:37.593Z,88.53
2023-05-18T06:19:37.575Z,88.70
2023-05-18T06:20:37.554Z,89.48
2023-05-18T06:21:37.550Z,88.70
2023-05-18T06:22:37.527Z,89.17
2023-05-18T06:23:39.516Z,88.66
2023-05-18T06:24:37.507Z,88.76
2023-05-18T06:25:37.518Z,86.85
2023-05-18T06:26:37.498Z,86.91
2023-05-18T06:27:37.473Z,86.85
2023-05-18T06:28:37.460Z,86.58
2023-05-18T06:29:37.465Z,88.78
2023-05-18T06:30:37.454Z,86.61
2023-05-18T06:31:37.464Z,86.82
2023-05-18T06:32:37.586Z,88.89
2023-05-18T06:33:37.410Z,87.24
2023-05-18T06:34:37.400Z,86.21
2023-05-18T06:35:37.388Z,87.03
2023-05-18T06:36:37.375Z,87.99
2023-05-18T06:37:37.423Z,87.03
2023-05-18T06:38:37.358Z,87.34
2023-05-18T06:39:37.348Z,88.26
2023-05-18T06:40:37.343Z,85.07
2023-05-18T06:41:37.347Z,86.61
2023-05-18T06:42:37.311Z,86.41
2023-05-18T06:43:37.331Z,87.85
2023-05-18T06:44:37.290Z,87.01
2023-05-18T06:45:37.743Z,87.75
2023-05-18T06:46:37.355Z,87.54
2023-05-18T06:47:37.287Z,88.06
2023-05-18T06:48:37.266Z,87.30
2023-05-18T06:49:37.261Z,87.71
2023-05-18T06:50:37.240Z,88.26
2023-05-18T06:51:37.217Z,86.82
2023-05-18T06:52:37.204Z,86.68
2023-05-18T06:53:37.205Z,89.31
2023-05-18T06:54:37.192Z,87.81
2023-05-18T06:55:37.201Z,86.99
2023-05-18T06:56:37.168Z,86.79
2023-05-18T06:57:37.177Z,86.33
2023-05-18T06:58:37.158Z,89.79
2023-05-18T06:59:37.131Z,87.79
2023-05-18T07:00:37.116Z,86.29
2023-05-18T07:01:37.159Z,86.08
2023-05-18T07:02:37.131Z,86.66
2023-05-18T07:03:37.153Z,85.02
2023-05-18T07:04:37.113Z,87.49
2023-05-18T07:05:39.374Z,88.06
2023-05-18T07:06:37.054Z,89.50
2023-05-18T07:07:37.087Z,86.99
2023-05-18T07:08:37.049Z,86.00
2023-05-18T07:09:37.041Z,87.24
2023-05-18T07:10:37.035Z,83.85
2023-05-18T07:11:37.001Z,86.46
2023-05-18T07:12:36.987Z,88.78
2023-05-18T07:13:37.069Z,84.47
2023-05-18T07:14:36.961Z,84.81
2023-05-18T07:15:36.978Z,85.78
2023-05-18T07:16:37.017Z,86.56
2023-05-18T07:17:36.983Z,83.92
2023-05-18T07:18:36.960Z,86.11
2023-05-18T07:19:36.944Z,87.12
2023-05-18T07:20:36.911Z,84.66
2023-05-18T07:21:36.900Z,82.43
2023-05-18T07:22:36.893Z,81.71
2023-05-18T07:23:36.871Z,82.54
2023-05-18T07:24:36.867Z,78.64
2023-05-18T07:25:36.865Z,79.05
2023-05-18T07:26:36.862Z,81.41
2023-05-18T07:27:36.824Z,79.15
2023-05-18T07:28:36.816Z,80.79
2023-05-18T07:29:36.829Z,80.04
2023-05-18T07:30:36.793Z,81.37
2023-05-18T07:31:36.818Z,79.83
2023-05-18T07:32:36.843Z,79.59
2023-05-18T07:33:38.513Z,78.32
2023-05-18T07:34:36.749Z,76.31
2023-05-18T07:35:36.744Z,77.16
2023-05-18T07:36:36.732Z,79.35
2023-05-18T07:37:36.741Z,79.59
2023-05-18T07:38:36.706Z,79.93
2023-05-18T07:39:36.700Z,80.18
2023-05-18T07:40:36.680Z,82.87
2023-05-18T07:41:36.676Z,80.31
2023-05-18T07:42:36.680Z,79.18
2023-05-18T07:43:36.678Z,80.04
2023-05-18T07:44:36.638Z,81.37
2023-05-18T07:45:36.699Z,82.97
2023-05-18T07:46:36.640Z,82.56
2023-05-18T07:47:36.655Z,81.09
2023-05-18T07:48:37.528Z,81.46
2023-05-18T07:49:36.613Z,81.70
2023-05-18T07:50:36.574Z,78.05
2023-05-18T07:51:36.567Z,77.67
2023-05-18T07:52:36.553Z,78.56
2023-05-18T07:53:36.542Z,76.40
2023-05-18T07:54:36.536Z,79.82
2023-05-18T07:55:36.565Z,78.08
2023-05-18T07:56:36.514Z,78.63
2023-05-18T07:57:36.519Z,80.33
2023-05-18T07:58:36.657Z,79.48
2023-05-18T07:59:36.476Z,77.84
2023-05-18T08:00:36.475Z,77.60
2023-05-18T08:01:36.499Z,78.28
2023-05-18T08:02:36.535Z,77.33
2023-05-18T08:03:36.491Z,76.85
2023-05-18T08:04:36.416Z,78.86
2023-05-18T08:05:36.418Z,79.64
2023-05-18T08:06:36.413Z,78.42
2023-05-18T08:07:36.416Z,79.64
2023-05-18T08:08:36.378Z,77.50
2023-05-18T08:09:36.393Z,77.39
2023-05-18T08:10:36.350Z,80.63
2023-05-18T08:11:36.342Z,77.73
2023-05-18T08:12:36.327Z,77.91
2023-05-18T08:13:36.330Z,80.36
2023-05-18T08:14:36.321Z,77.46
2023-05-18T08:15:36.309Z,76.47
2023-05-18T08:16:36.324Z,79.96
2023-05-18T08:17:36.340Z,79.71
2023-05-18T08:18:36.403Z,82.29
2023-05-18T08:19:36.265Z,79.84
2023-05-18T08:20:36.248Z,80.90
2023-05-18T08:21:36.235Z,81.07
2023-05-18T08:22:36.216Z,80.25
2023-05-18T08:23:36.208Z,79.70
2023-05-18T08:24:36.208Z,79.33
2023-05-18T08:25:36.205Z,77.08
2023-05-18T08:26:36.183Z,78.07
2023-05-18T08:27:36.170Z,80.89
2023-05-18T08:28:36.155Z,79.60
2023-05-18T08:29:36.143Z,81.51
2023-05-18T08:30:36.137Z,78.03
2023-05-18T08:31:36.197Z,77.35
2023-05-18T08:32:36.174Z,77.72
2023-05-18T08:33:36.129Z,78.13
2023-05-18T08:34:36.126Z,79.57
2023-05-18T08:35:36.077Z,78.17
2023-05-18T08:36:36.102Z,80.58
2023-05-18T08:37:36.105Z,77.79
2023-05-18T08:38:36.047Z,74.76
2023-05-18T08:39:36.037Z,80.65
2023-05-18T08:40:36.051Z,79.14
2023-05-18T08:41:38.654Z,77.28
2023-05-18T08:42:48.670Z,77.04
2023-05-18T08:43:37.016Z,80.38
2023-05-18T08:44:35.985Z,76.40
2023-05-18T08:45:35.967Z,76.47
2023-05-18T08:46:35.987Z,78.31
2023-05-18T08:47:35.995Z,80.42
2023-05-18T08:48:36.014Z,78.09
2023-05-18T08:49:35.959Z,79.36
2023-05-18T08:50:35.915Z,80.51
2023-05-18T08:51:35.903Z,78.77
2023-05-18T08:52:35.910Z,77.04
2023-05-18T08:53:35.885Z,74.59
2023-05-18T08:54:35.870Z,78.57
2023-05-18T08:55:35.876Z,77.92
2023-05-18T08:56:35.853Z,76.46
2023-05-18T08:57:35.849Z,77.92
2023-05-18T08:58:35.890Z,73.94
2023-05-18T08:59:35.818Z,80.60
2023-05-18T09:00:35.936Z,77.89
2023-05-18T09:01:35.861Z,73.77
2023-05-18T09:02:35.819Z,79.25
2023-05-18T09:03:35.774Z,78.77
2023-05-18T09:04:35.863Z,77.03
2023-05-18T09:05:36.073Z,77.10
2023-05-18T09:06:35.761Z,74.58
2023-05-18T09:07:35.739Z,73.40
2023-05-18T09:08:35.756Z,77.21
2023-05-18T09:09:35.709Z,74.73
2023-05-18T09:10:35.707Z,75.34
2023-05-18T09:11:35.724Z,77.55
2023-05-18T09:12:35.687Z,78.12
2023-05-18T09:13:35.675Z,75.98
2023-05-18T09:14:35.665Z,76.62
2023-05-18T09:15:35.639Z,74.01
2023-05-18T09:16:35.748Z,74.58
2023-05-18T09:17:35.666Z,76.62
2023-05-18T09:18:35.659Z,75.30
2023-05-18T09:19:35.637Z,73.77
2023-05-18T09:20:35.595Z,72.75
2023-05-18T09:21:35.608Z,74.28
2023-05-18T09:22:35.567Z,75.33
2023-05-18T09:23:35.554Z,74.38
2023-05-18T09:24:35.549Z,75.70
2023-05-18T09:25:35.575Z,75.91
2023-05-18T09:26:35.531Z,72.75
2023-05-18T09:27:35.511Z,72.96
2023-05-18T09:28:35.508Z,74.28
2023-05-18T09:29:35.488Z,72.34
2023-05-18T09:30:35.481Z,70.86
2023-05-18T09:31:35.507Z,74.15
2023-05-18T09:32:35.513Z,73.09
2023-05-18T09:33:35.594Z,72.38
2023-05-18T09:34:35.438Z,74.41
2023-05-18T09:35:37.107Z,71.67
2023-05-18T09:36:35.417Z,72.08
2023-05-18T09:37:35.439Z,72.04
2023-05-18T09:38:35.403Z,72.85
2023-05-18T09:39:35.380Z,71.47
2023-05-18T09:40:35.382Z,70.45
2023-05-18T09:41:35.359Z,76.21
2023-05-18T09:42:35.349Z,71.70
2023-05-18T09:43:35.362Z,70.68
2023-05-18T09:44:35.349Z,72.01
2023-05-18T09:45:35.315Z,74.62
2023-05-18T09:46:35.348Z,71.87
2023-05-18T09:47:35.310Z,71.70
2023-05-18T09:48:35.290Z,74.45
2023-05-18T09:49:35.286Z,73.63
2023-05-18T09:50:35.273Z,73.91
2023-05-18T09:51:35.247Z,74.88
2023-05-18T09:52:35.255Z,73.67
2023-05-18T09:53:35.255Z,71.91
2023-05-18T09:54:35.228Z,72.62
2023-05-18T09:55:35.220Z,72.14
2023-05-18T09:56:35.205Z,70.82
2023-05-18T09:57:35.196Z,72.72
2023-05-18T09:58:35.186Z,73.70
2023-05-18T09:59:35.163Z,72.28
2023-05-18T10:00:35.208Z,71.67
2023-05-18T10:01:35.239Z,71.40
2023-05-18T10:02:35.154Z,70.62
2023-05-18T10:03:35.133Z,72.01
2023-05-18T10:04:35.133Z,71.88
2023-05-18T10:05:36.336Z,71.09
2023-05-18T10:06:35.111Z,70.99
2023-05-18T10:07:35.084Z,71.20
2023-05-18T10:08:35.072Z,72.58
2023-05-18T10:09:35.076Z,72.28
2023-05-18T10:10:35.072Z,72.38
2023-05-18T10:11:35.036Z,72.25
2023-05-18T10:12:35.042Z,70.32
2023-05-18T10:13:35.035Z,71.88
2023-05-18T10:14:35.001Z,74.61
2023-05-18T10:15:34.986Z,73.80
2023-05-18T10:16:35.011Z,70.69
2023-05-18T10:17:35.082Z,69.68
2023-05-18T10:18:35.021Z,69.10
2023-05-18T10:19:34.943Z,68.60
2023-05-18T10:20:34.941Z,68.43
2023-05-18T10:21:34.924Z,71.97
2023-05-18T10:22:34.917Z,67.51
2023-05-18T10:23:34.914Z,69.71
2023-05-18T10:24:34.940Z,68.12
2023-05-18T10:25:34.900Z,70.56
2023-05-18T10:26:34.890Z,67.85
2023-05-18T10:27:34.869Z,67.68
2023-05-18T10:28:34.854Z,66.83
2023-05-18T10:29:34.895Z,69.40
2023-05-18T10:30:34.887Z,69.17
2023-05-18T10:31:34.983Z,72.01
2023-05-18T10:32:34.850Z,69.78
2023-05-18T10:33:34.855Z,69.67
2023-05-18T10:34:34.791Z,70.48
2023-05-18T10:35:34.781Z,70.28
2023-05-18T10:36:34.795Z,72.04
2023-05-18T10:37:34.748Z,70.25
2023-05-18T10:38:34.742Z,73.73
2023-05-18T10:39:34.742Z,69.24
2023-05-18T10:40:34.721Z,69.81
2023-05-18T10:41:34.771Z,69.57
2023-05-18T10:42:34.712Z,70.05
2023-05-18T10:43:34.685Z,69.54
2023-05-18T10:44:34.804Z,69.85
2023-05-18T10:45:34.694Z,66.74
2023-05-18T10:46:34.726Z,67.08
2023-05-18T10:47:34.848Z,67.65
2023-05-18T10:48:34.669Z,70.22
2023-05-18T10:49:34.623Z,68.74
2023-05-18T10:50:34.617Z,67.29
2023-05-18T10:51:34.613Z,70.69
2023-05-18T10:52:34.589Z,69.71
2023-05-18T10:53:34.593Z,68.60
2023-05-18T10:54:34.585Z,70.05
2023-05-18T10:55:34.581Z,66.61
2023-05-18T10:56:34.549Z,67.25
2023-05-18T10:57:34.561Z,69.34
2023-05-18T10:58:34.527Z,67.96
2023-05-18T10:59:34.514Z,68.40
2023-05-18T11:00:34.516Z,67.32
2023-05-18T11:01:34.580Z,64.67
2023-05-18T11:02:34.514Z,67.61
2023-05-18T11:03:34.473Z,67.68
2023-05-18T11:04:34.504Z,67.47
2023-05-18T11:05:34.451Z,69.20
2023-05-18T11:06:34.449Z,68.42
2023-05-18T11:07:34.441Z,70.25
2023-05-18T11:08:34.431Z,67.71
2023-05-18T11:09:34.410Z,67.03
2023-05-18T11:10:34.395Z,68.52
2023-05-18T11:11:34.384Z,68.86
2023-05-18T11:12:34.396Z,70.89
2023-05-18T11:13:34.419Z,69.57
2023-05-18T11:14:34.367Z,69.17
2023-05-18T11:15:34.345Z,70.38
2023-05-18T11:16:34.356Z,68.45
2023-05-18T11:17:34.473Z,68.05
2023-05-18T11:18:34.332Z,67.61
2023-05-18T11:19:34.299Z,68.83
2023-05-18T11:20:34.286Z,69.71
2023-05-18T11:21:34.279Z,68.22
2023-05-18T11:22:34.268Z,68.19
2023-05-18T11:23:34.268Z,68.26
2023-05-18T11:24:34.255Z,72.08
2023-05-18T11:25:34.237Z,70.49
2023-05-18T11:26:34.222Z,71.84
2023-05-18T11:27:34.300Z,66.50
2023-05-18T11:28:34.201Z,66.10
2023-05-18T11:29:34.225Z,68.87
2023-05-18T11:30:34.483Z,70.02
2023-05-18T11:31:34.197Z,68.70
2023-05-18T11:32:34.282Z,69.81
2023-05-18T11:33:34.206Z,69.51
2023-05-18T11:34:34.778Z,69.71
2023-05-18T11:35:34.129Z,67.89
2023-05-18T11:36:34.158Z,69.61
2023-05-18T11:37:34.164Z,69.58
2023-05-18T11:38:34.101Z,69.27
2023-05-18T11:39:34.857Z,67.01
2023-05-18T11:40:34.074Z,67.35
2023-05-18T11:41:34.119Z,68.56
2023-05-18T11:42:34.093Z,69.41
2023-05-18T11:43:34.042Z,68.46
2023-05-18T11:44:34.034Z,67.65
2023-05-18T11:45:34.050Z,68.06
2023-05-18T11:46:34.051Z,66.91
2023-05-18T11:47:34.098Z,68.60
2023-05-18T11:48:34.098Z,69.81
2023-05-18T11:49:33.995Z,70.01
2023-05-18T11:50:34.210Z,67.72
2023-05-18T11:51:33.963Z,70.45
2023-05-18T11:52:33.941Z,68.43
2023-05-18T11:53:33.948Z,67.95
2023-05-18T11:54:33.940Z,66.94
2023-05-18T11:55:33.920Z,69.47
2023-05-18T11:56:33.903Z,69.98
2023-05-18T11:57:33.933Z,67.82
2023-05-18T11:58:33.874Z,67.96
2023-05-18T11:59:33.892Z,66.57
2023-05-18T12:00:33.865Z,68.66
2023-05-18T12:01:33.866Z,67.44
2023-05-18T12:02:33.979Z,70.18
2023-05-18T12:03:33.919Z,69.88
2023-05-18T12:04:33.887Z,68.96
2023-05-18T12:05:33.798Z,69.24
2023-05-18T12:06:33.814Z,68.52
2023-05-18T12:07:33.843Z,70.25
2023-05-18T12:08:33.778Z,67.47
2023-05-18T12:09:33.754Z,69.17
2023-05-18T12:10:33.913Z,69.68
2023-05-18T12:11:33.737Z,70.62
2023-05-18T12:12:33.742Z,70.79
2023-05-18T12:13:33.713Z,72.41
2023-05-18T12:14:33.698Z,71.33
2023-05-18T12:15:33.687Z,71.03
2023-05-18T12:16:33.735Z,73.60
2023-05-18T12:17:33.759Z,73.57
2023-05-18T12:18:33.683Z,71.16
2023-05-18T12:19:33.653Z,73.83
2023-05-18T12:20:33.790Z,73.74
2023-05-18T12:21:33.622Z,73.87
2023-05-18T12:22:33.611Z,73.97
2023-05-18T12:23:33.619Z,74.48
2023-05-18T12:24:33.625Z,74.68
2023-05-18T12:25:33.848Z,74.41
2023-05-18T12:26:33.568Z,76.45
2023-05-18T12:27:33.559Z,77.36
2023-05-18T12:28:33.546Z,75.02
2023-05-18T12:29:33.539Z,76.04
2023-05-18T12:30:33.543Z,74.82
2023-05-18T12:31:33.642Z,75.23
2023-05-18T12:32:33.536Z,76.01
2023-05-18T12:33:33.525Z,76.31
2023-05-18T12:34:33.491Z,76.31
2023-05-18T12:35:33.958Z,76.51
2023-05-18T12:36:33.488Z,73.60
2023-05-18T12:37:44.114Z,76.28
2023-05-18T12:38:34.449Z,75.26
2023-05-18T12:39:33.429Z,77.70
2023-05-18T12:40:33.416Z,76.89
2023-05-18T12:41:33.422Z,76.18
2023-05-18T12:42:33.429Z,75.87
2023-05-18T12:43:33.386Z,76.15
2023-05-18T12:44:33.372Z,77.47
2023-05-18T12:45:33.657Z,77.03
2023-05-18T12:46:33.416Z,77.53
2023-05-18T12:47:33.405Z,76.82
2023-05-18T12:48:33.363Z,76.92
2023-05-18T12:49:33.342Z,77.74
2023-05-18T12:50:33.313Z,76.42
2023-05-18T12:51:33.295Z,75.77
2023-05-18T12:52:33.286Z,76.68